GOO weather

Nevada County Airport
Grass Valley, California, United States

Public forecast

Using degrees Fahrenheit for public forecast. Weather courtesy of forecast.io.

METAR (pilot weather report)

Retrieved 2019/08/20 15:35 UTC (0 seconds ago):

KGOO 201535Z AUTO 00000KT 10SM CLR 22/09 A3008 RMK A01

TAF (pilot weather forecast)

Closest forecast is Beale Air Force Base, 20.9 nm (38.7 km) WSW. Retrieved 2019/08/20 11:27 UTC (4 hours ago):

TAF TAF KBAB 201115Z 2011/2117 VRB06KT 9999 SKC QNH2988INS TX32/2023Z TN13/2014Z